Lofthouse, United Kingdom
Current Conditions -  °F | °C
As of 1:20 AM on Thursday 27 Nov 2014 (Local Time) from EGNM Reporting Station
Haze Haze  
Wind Chill: 38°   Ceiling: 200
Heat Index: 41°   Visibility: 1.4mi
Dew Point: 41°   Wind: 5mph
Humidity: 100%   Direction: 360°N
Pressure: 29.71"   Gusts: NA
Location:  53.73°N, 1.5°W
Report Text: EGNM 270120Z 36004KT 2300 BR OVC002 05/05 Q1006
Loading
Personal Weather Stations






























Interactive Weather Map New forecast layout! Learn more

10-Day Weather Forecast

Advertisements
Track Severe Weather on mobile